createdAt,value
2022-11-03T10:30:13.413Z,41.06
2022-11-03T10:45:15.436Z,42.61
2022-11-03T11:00:18.188Z,47.16
2022-11-03T11:15:39.559Z,45.87
2022-11-03T11:30:41.583Z,46.00
2022-11-03T11:46:20.399Z,49.23
2022-11-03T12:01:34.145Z,51.96
2022-11-03T12:16:36.851Z,53.12
2022-11-03T13:02:11.389Z,57.29
2022-11-03T13:17:13.467Z,58.84
2022-11-03T13:32:15.341Z,60.15
2022-11-03T13:47:29.918Z,61.43
2022-11-03T14:18:06.093Z,71.67
2022-11-03T14:33:08.429Z,75.67
2022-11-03T14:48:10.830Z,76.43
2022-11-03T15:03:12.883Z,75.79
2022-11-03T15:18:14.772Z,75.20
2022-11-03T15:33:17.493Z,76.56
2022-11-03T15:48:19.434Z,77.86
2022-11-03T16:03:21.557Z,76.54
2022-11-03T16:18:23.524Z,79.11
2022-11-03T16:33:25.341Z,80.56
2022-11-03T16:48:27.151Z,84.57
2022-11-03T17:03:29.295Z,88.43
2022-11-03T17:18:31.304Z,93.92
2022-11-03T17:33:34.265Z,96.49
2022-11-03T17:48:36.176Z,96.61
2022-11-03T18:03:38.206Z,92.95
2022-11-03T18:18:42.719Z,94.66
2022-11-03T18:33:52.294Z,97.29
2022-11-03T18:48:54.376Z,100.00
2022-11-03T19:03:59.618Z,100.00
2022-11-03T19:19:01.736Z,100.00
2022-11-03T19:34:06.218Z,100.00
2022-11-03T19:49:14.967Z,100.00
2022-11-03T20:04:16.922Z,100.00
2022-11-03T20:19:18.786Z,100.00
2022-11-03T20:49:24.479Z,100.00
2022-11-03T21:04:29.160Z,100.00
2022-11-03T21:19:51.403Z,100.00
2022-11-03T21:34:53.352Z,100.00
2022-11-03T21:49:55.361Z,100.00
2022-11-03T22:04:58.038Z,100.00
2022-11-03T22:20:18.300Z,100.00
2022-11-03T22:35:39.804Z,100.00
2022-11-03T22:50:41.661Z,100.00
2022-11-03T23:05:43.608Z,100.00
2022-11-03T23:21:03.884Z,100.00
2022-11-03T23:36:13.538Z,100.00
2022-11-03T23:51:18.457Z,100.00
